Time;durP1;ratioP1;P1;durP2;ratioP2;P2;SDS_P1;SDS_P2;PMS_P1;PMS_P2;Temp;Humidity;BMP_temperature;BMP_pressure;BME280_temperature;BME280_humidity;BME280_pressure;Samples;Min_cycle;Max_cycle;Signal;HPM_P1;HPM_P2
2021/06/03 00:01:01;;;;;;;12.82;6.88;;;22.60;65.20;;;;;;5064666;28;20033;-63
2021/06/03 00:03:27;;;;;;;14.23;5.82;;;22.70;65.40;;;;;;5069086;28;20024;-63
2021/06/03 00:05:56;;;;;;;9.23;6.07;;;22.60;65.30;;;;;;5058228;28;20101;-63
2021/06/03 00:08:25;;;;;;;13.30;6.65;;;22.60;65.30;;;;;;5071640;28;20472;-63
2021/06/03 00:10:58;;;;;;;9.93;6.22;;;22.60;65.40;;;;;;5055611;28;20028;-63
2021/06/03 00:13:26;;;;;;;11.48;7.13;;;22.60;65.40;;;;;;5071290;28;20477;-63
2021/06/03 00:15:53;;;;;;;14.60;7.05;;;22.50;65.40;;;;;;5058323;28;20044;-63
2021/06/03 00:18:19;;;;;;;13.23;6.82;;;22.50;65.40;;;;;;5064422;28;20017;-63
2021/06/03 00:20:45;;;;;;;15.30;6.88;;;22.50;65.40;;;;;;5074467;28;20039;-63
2021/06/03 00:23:10;;;;;;;13.00;6.68;;;22.50;65.50;;;;;;5072514;28;20036;-63
2021/06/03 00:25:39;;;;;;;9.27;6.40;;;22.40;65.40;;;;;;5061865;28;20033;-63
2021/06/03 00:28:05;;;;;;;13.55;6.97;;;22.40;65.40;;;;;;5066663;28;20068;-63
2021/06/03 00:30:32;;;;;;;10.85;6.28;;;22.40;65.50;;;;;;5061251;28;20059;-63
2021/06/03 00:32:58;;;;;;;9.35;5.85;;;22.40;65.40;;;;;;5059624;28;20033;-63
2021/06/03 00:35:24;;;;;;;14.73;7.40;;;22.30;65.40;;;;;;5070648;28;20042;-63
2021/06/03 00:37:50;;;;;;;9.82;6.45;;;22.30;65.50;;;;;;5074077;28;20107;-63
2021/06/03 00:40:20;;;;;;;8.18;6.15;;;22.30;65.50;;;;;;5075715;28;20557;-63
2021/06/03 00:42:46;;;;;;;16.70;6.93;;;22.30;65.50;;;;;;5074562;28;20769;-63
2021/06/03 00:45:15;;;;;;;10.85;6.32;;;22.30;65.60;;;;;;5066524;28;20105;-63
2021/06/03 00:47:42;;;;;;;16.42;6.88;;;22.20;65.50;;;;;;5073456;28;20020;-63
2021/06/03 00:50:18;;;;;;;13.40;6.60;;;22.20;65.60;;;;;;5072662;28;20430;-63
2021/06/03 00:52:49;;;;;;;11.68;6.85;;;22.20;65.60;;;;;;5073425;28;20039;-63
2021/06/03 00:55:15;;;;;;;15.30;6.53;;;22.20;65.80;;;;;;5056140;28;20052;-63
2021/06/03 00:57:41;;;;;;;10.02;6.22;;;22.10;65.80;;;;;;5066742;28;20040;-63
2021/06/03 01:00:13;;;;;;;9.95;6.72;;;22.10;65.90;;;;;;5063097;28;20021;-63
2021/06/03 01:02:40;;;;;;;11.70;6.85;;;22.10;66.00;;;;;;5062305;28;20480;-63
2021/06/03 01:05:10;;;;;;;14.82;7.10;;;22.10;66.00;;;;;;5060158;28;20044;-63
2021/06/03 01:07:35;;;;;;;11.70;6.97;;;22.00;66.00;;;;;;5065578;28;20108;-63
2021/06/03 01:10:11;;;;;;;12.63;6.85;;;22.00;66.00;;;;;;5061623;28;20107;-63
2021/06/03 01:13:06;;;;;;;10.35;7.15;;;22.00;66.10;;;;;;5069230;28;20032;-63
2021/06/03 01:15:33;;;;;;;21.75;7.65;;;22.00;66.10;;;;;;5072852;28;20029;-63
2021/06/03 01:18:02;;;;;;;13.55;6.78;;;21.90;66.10;;;;;;5069459;28;20032;-63
2021/06/03 01:20:28;;;;;;;14.63;7.20;;;21.90;66.30;;;;;;5053393;28;20055;-63
2021/06/03 01:23:09;;;;;;;12.13;7.13;;;21.90;66.30;;;;;;5070955;28;20029;-63
2021/06/03 01:25:38;;;;;;;11.23;6.70;;;21.90;66.40;;;;;;5063113;28;20079;-63
2021/06/03 01:28:06;;;;;;;13.48;7.70;;;21.80;66.40;;;;;;5055289;28;20059;-63
2021/06/03 01:30:39;;;;;;;15.43;7.53;;;21.70;66.30;;;;;;5063686;28;20111;-63
2021/06/03 01:33:10;;;;;;;12.93;6.65;;;21.70;66.40;;;;;;5064695;28;20036;-63
2021/06/03 01:35:40;;;;;;;14.75;7.10;;;21.70;66.50;;;;;;5059935;28;20515;-63
2021/06/03 01:38:12;;;;;;;16.48;8.05;;;21.70;66.60;;;;;;5073311;28;20036;-63
2021/06/03 01:40:41;;;;;;;12.52;7.43;;;21.70;66.60;;;;;;5061145;28;20147;-63
2021/06/03 01:43:09;;;;;;;13.35;7.40;;;21.60;66.70;;;;;;5060404;28;20033;-63
2021/06/03 01:45:35;;;;;;;13.98;7.05;;;21.60;66.70;;;;;;5066500;28;20425;-63
2021/06/03 01:48:03;;;;;;;13.10;7.50;;;21.60;66.80;;;;;;5056613;28;20500;-63
2021/06/03 01:50:32;;;;;;;13.75;7.68;;;21.60;67.00;;;;;;5055217;28;20252;-63
2021/06/03 01:53:00;;;;;;;13.05;7.22;;;21.50;66.90;;;;;;5053009;28;20131;-63
2021/06/03 01:55:27;;;;;;;10.93;7.30;;;21.60;67.00;;;;;;5058330;28;20392;-63
2021/06/03 01:57:53;;;;;;;11.25;7.47;;;21.60;67.10;;;;;;5060945;28;20035;-63
2021/06/03 02:00:26;;;;;;;13.50;7.60;;;21.60;67.20;;;;;;5061967;28;20070;-63
2021/06/03 02:02:55;;;;;;;15.10;7.40;;;21.50;67.20;;;;;;5054914;28;20382;-63
2021/06/03 02:05:25;;;;;;;14.48;7.43;;;21.50;67.30;;;;;;5057009;28;20419;-63
2021/06/03 02:07:51;;;;;;;11.30;7.03;;;21.50;67.40;;;;;;5058166;28;20086;-63
2021/06/03 02:10:19;;;;;;;12.23;7.38;;;21.50;67.50;;;;;;5061272;28;20375;-63
2021/06/03 02:13:00;;;;;;;14.52;7.32;;;21.50;67.60;;;;;;5061547;28;20033;-63
2021/06/03 02:15:32;;;;;;;11.02;7.40;;;21.40;67.70;;;;;;5075168;28;20558;-63
2021/06/03 02:18:00;;;;;;;14.88;8.20;;;21.40;67.70;;;;;;5060179;28;20036;-63
2021/06/03 02:20:31;;;;;;;12.25;7.68;;;21.40;68.40;;;;;;5056693;28;20044;-63
2021/06/03 02:22:58;;;;;;;11.07;7.47;;;21.40;67.70;;;;;;5052898;28;20083;-63
2021/06/03 02:25:27;;;;;;;12.90;7.40;;;21.30;67.60;;;;;;5059263;28;20430;-63
2021/06/03 02:27:54;;;;;;;10.00;7.30;;;21.30;67.60;;;;;;5058477;28;20049;-63
2021/06/03 02:30:22;;;;;;;16.15;7.85;;;21.30;67.70;;;;;;5058434;28;20039;-63
2021/06/03 02:32:52;;;;;;;12.40;7.63;;;21.20;67.50;;;;;;5058621;28;20024;-63
2021/06/03 02:35:20;;;;;;;11.60;7.00;;;21.30;67.70;;;;;;5057073;28;20148;-63
2021/06/03 02:37:48;;;;;;;11.73;6.43;;;21.30;68.20;;;;;;5056819;28;20040;-63
2021/06/03 02:40:21;;;;;;;11.55;7.10;;;21.20;67.50;;;;;;5054152;28;20060;-63
2021/06/03 02:42:48;;;;;;;10.40;7.05;;;21.20;67.50;;;;;;5053654;28;20508;-63
2021/06/03 02:45:24;;;;;;;14.52;7.05;;;21.20;67.50;;;;;;5059360;28;20437;-63
2021/06/03 02:47:50;;;;;;;10.95;7.40;;;21.20;67.40;;;;;;5056530;28;20082;-63
2021/06/03 02:50:21;;;;;;;11.55;7.57;;;21.30;67.50;;;;;;5054941;28;20029;-63
2021/06/03 02:52:49;;;;;;;15.18;7.93;;;21.20;67.40;;;;;;5056424;28;20539;-63
2021/06/03 02:55:20;;;;;;;15.38;8.10;;;21.20;67.30;;;;;;5052595;28;20029;-63
2021/06/03 02:57:49;;;;;;;13.25;7.70;;;21.20;67.30;;;;;;5056292;28;20028;-63
2021/06/03 03:00:25;;;;;;;12.90;7.90;;;21.20;67.20;;;;;;5058234;28;20078;-63
2021/06/03 03:02:51;;;;;;;13.88;6.88;;;21.10;67.10;;;;;;5061742;28;20032;-63
2021/06/03 03:05:18;;;;;;;11.05;7.00;;;21.10;67.10;;;;;;5070329;28;20029;-64
2021/06/03 03:07:44;;;;;;;10.80;7.45;;;21.10;67.00;;;;;;5066135;28;20037;-65
2021/06/03 03:10:17;;;;;;;13.13;7.57;;;21.10;66.90;;;;;;5060095;28;20085;-63
2021/06/03 03:12:43;;;;;;;11.43;7.47;;;21.10;67.00;;;;;;5062345;28;20020;-63
2021/06/03 03:15:14;;;;;;;12.60;7.53;;;21.00;66.80;;;;;;5071784;28;20051;-63
2021/06/03 03:17:41;;;;;;;10.40;6.40;;;21.00;66.60;;;;;;5062218;28;20063;-63
2021/06/03 03:20:11;;;;;;;10.40;7.00;;;21.00;66.60;;;;;;5064049;28;20404;-63
2021/06/03 03:22:41;;;;;;;12.80;6.28;;;21.00;66.60;;;;;;5071491;28;20028;-63
2021/06/03 03:25:09;;;;;;;11.55;6.90;;;21.00;66.40;;;;;;5065647;28;20027;-63
2021/06/03 03:27:37;;;;;;;13.25;6.18;;;21.00;66.50;;;;;;5066714;28;20101;-63
2021/06/03 03:30:05;;;;;;;14.15;6.72;;;20.90;66.30;;;;;;5065432;28;20059;-63
2021/06/03 03:32:31;;;;;;;10.77;7.05;;;20.90;66.20;;;;;;5063537;28;20020;-63
2021/06/03 03:34:59;;;;;;;11.23;6.82;;;20.90;66.20;;;;;;5063530;28;20123;-63
2021/06/03 03:37:26;;;;;;;32.58;9.05;;;20.90;66.20;;;;;;5068227;28;20127;-63
2021/06/03 03:39:52;;;;;;;11.02;6.78;;;20.90;66.20;;;;;;5063252;28;20070;-63
2021/06/03 03:42:18;;;;;;;15.73;7.38;;;20.80;66.30;;;;;;5065140;28;20135;-63
2021/06/03 03:44:45;;;;;;;16.45;6.68;;;20.80;66.40;;;;;;5063165;28;20027;-63
2021/06/03 03:47:11;;;;;;;11.40;6.68;;;20.80;66.40;;;;;;5071257;28;20103;-63
2021/06/03 03:49:37;;;;;;;16.23;6.68;;;20.80;66.40;;;;;;5070542;28;20029;-64
2021/06/03 03:52:04;;;;;;;11.38;6.13;;;20.80;66.30;;;;;;5068882;28;20043;-63
2021/06/03 03:54:33;;;;;;;12.82;7.30;;;20.80;66.40;;;;;;5066566;28;20068;-63
2021/06/03 03:56:59;;;;;;;10.18;6.68;;;20.70;66.40;;;;;;5069953;28;20047;-63
2021/06/03 03:59:25;;;;;;;11.07;6.53;;;20.70;66.50;;;;;;5068685;28;20115;-64
2021/06/03 04:01:53;;;;;;;15.23;6.78;;;20.70;66.50;;;;;;5060329;28;20024;-63
2021/06/03 04:04:21;;;;;;;13.13;6.95;;;20.70;66.70;;;;;;5063141;28;20028;-63
2021/06/03 04:06:49;;;;;;;12.98;6.25;;;20.70;66.60;;;;;;5058276;28;20039;-63
2021/06/03 04:09:15;;;;;;;12.80;6.88;;;20.70;66.80;;;;;;5068760;28;20048;-63
2021/06/03 04:11:45;;;;;;;22.55;6.00;;;20.60;66.80;;;;;;5067250;28;20369;-63
2021/06/03 04:14:12;;;;;;;9.52;6.13;;;20.60;66.80;;;;;;5066799;28;20037;-63
2021/06/03 04:16:37;;;;;;;8.82;6.30;;;20.70;67.00;;;;;;5065134;28;20037;-63
2021/06/03 04:19:04;;;;;;;13.85;6.75;;;20.70;66.90;;;;;;5053653;28;20120;-63
2021/06/03 04:21:29;;;;;;;11.70;6.82;;;20.60;66.90;;;;;;5063408;28;20131;-64
2021/06/03 04:23:55;;;;;;;10.02;6.45;;;20.60;67.00;;;;;;5068733;28;20017;-63
2021/06/03 04:26:21;;;;;;;9.73;5.82;;;20.60;66.90;;;;;;5072357;28;20028;-63
2021/06/03 04:28:46;;;;;;;9.65;6.22;;;20.60;66.90;;;;;;5068622;28;20032;-63
2021/06/03 04:31:12;;;;;;;14.07;6.22;;;20.70;67.10;;;;;;5066018;28;20388;-63
2021/06/03 04:33:38;;;;;;;9.80;5.75;;;20.60;67.10;;;;;;5072232;28;20380;-63
2021/06/03 04:36:04;;;;;;;9.77;5.15;;;20.60;67.10;;;;;;5069156;28;20403;-63
2021/06/03 04:38:30;;;;;;;10.32;6.18;;;20.60;67.20;;;;;;5072034;28;20028;-64
2021/06/03 04:40:56;;;;;;;10.82;5.93;;;20.70;67.40;;;;;;5066555;28;20036;-63
2021/06/03 04:43:21;;;;;;;9.30;6.38;;;20.70;67.50;;;;;;5068693;28;20107;-63
2021/06/03 04:45:47;;;;;;;9.50;5.85;;;20.70;67.60;;;;;;5065996;28;20032;-66
2021/06/03 04:48:14;;;;;;;9.02;5.75;;;20.70;67.80;;;;;;5069591;28;20032;-66
2021/06/03 04:50:40;;;;;;;11.02;5.70;;;20.70;67.90;;;;;;5069963;28;20028;-65
2021/06/03 04:53:06;;;;;;;10.70;6.75;;;20.70;68.10;;;;;;5067689;28;20067;-66
2021/06/03 04:55:33;;;;;;;13.15;6.15;;;20.70;68.30;;;;;;5070405;28;20033;-65
2021/06/03 04:57:59;;;;;;;9.50;6.32;;;20.70;68.40;;;;;;5066802;28;20036;-64
2021/06/03 05:00:34;;;;;;;10.88;6.07;;;20.80;68.50;;;;;;5068366;28;20047;-65
2021/06/03 05:03:01;;;;;;;12.48;6.20;;;20.80;68.60;;;;;;5071465;28;20036;-64
2021/06/03 05:05:27;;;;;;;9.43;6.55;;;20.80;68.70;;;;;;5071090;28;20060;-64
2021/06/03 05:07:54;;;;;;;8.60;5.90;;;20.80;68.80;;;;;;5057497;28;20400;-70
2021/06/03 05:10:20;;;;;;;10.63;6.20;;;20.80;68.80;;;;;;5058884;28;20033;-67
2021/06/03 05:12:47;;;;;;;8.48;6.10;;;20.90;69.00;;;;;;5059757;28;20108;-67
2021/06/03 05:15:16;;;;;;;18.73;6.82;;;20.80;68.80;;;;;;5060247;28;20056;-66
2021/06/03 05:17:42;;;;;;;13.15;6.05;;;20.90;69.00;;;;;;5064799;28;20495;-65
2021/06/03 05:20:12;;;;;;;10.68;6.07;;;20.80;69.20;;;;;;5055556;28;20049;-66
2021/06/03 05:22:38;;;;;;;15.45;6.07;;;20.90;69.40;;;;;;5067610;28;20032;-67
2021/06/03 05:25:05;;;;;;;13.05;6.05;;;20.90;69.30;;;;;;5066288;28;20056;-64
2021/06/03 05:27:31;;;;;;;12.35;6.40;;;20.90;69.30;;;;;;5060403;28;20029;-62
2021/06/03 05:29:57;;;;;;;11.55;5.85;;;21.00;69.40;;;;;;5066158;28;20484;-63
2021/06/03 05:32:23;;;;;;;15.30;6.13;;;20.90;69.50;;;;;;5059014;28;20032;-63
2021/06/03 05:34:48;;;;;;;14.60;5.47;;;21.00;69.50;;;;;;5061168;28;20041;-63
2021/06/03 05:37:14;;;;;;;15.77;5.95;;;21.00;69.70;;;;;;5058045;28;20040;-64
2021/06/03 05:39:40;;;;;;;21.45;6.10;;;21.00;69.80;;;;;;5056167;28;20143;-64
2021/06/03 05:42:06;;;;;;;15.32;6.13;;;21.10;70.00;;;;;;5056413;28;20389;-63
2021/06/03 05:44:31;;;;;;;20.55;6.40;;;21.10;70.00;;;;;;5060290;28;20102;-63
2021/06/03 05:46:57;;;;;;;21.92;6.57;;;21.10;70.00;;;;;;5055313;28;20144;-63
2021/06/03 05:49:23;;;;;;;18.23;6.80;;;21.10;70.10;;;;;;5059249;28;20017;-63
2021/06/03 05:51:50;;;;;;;11.93;6.38;;;21.10;70.20;;;;;;5066376;28;20043;-64
2021/06/03 05:54:16;;;;;;;12.50;6.18;;;21.10;70.30;;;;;;5058545;28;20025;-64
2021/06/03 05:56:41;;;;;;;20.85;7.55;;;21.20;70.00;;;;;;5070638;28;20107;-64
2021/06/03 05:59:07;;;;;;;13.05;5.60;;;21.10;69.90;;;;;;5064924;28;20528;-64
2021/06/03 06:01:33;;;;;;;10.98;5.93;;;21.20;70.00;;;;;;5067169;28;20025;-64
2021/06/03 06:06:30;;;;;;;13.02;5.32;;;21.10;69.90;;;;;;5062641;28;20025;-65
2021/06/03 06:09:03;;;;;;;13.25;5.90;;;21.20;70.20;;;;;;5052816;28;20036;-67
2021/06/03 06:11:31;;;;;;;11.38;4.70;;;21.20;70.10;;;;;;5056824;28;20020;-65
2021/06/03 06:13:58;;;;;;;12.15;5.65;;;21.20;69.90;;;;;;5056106;28;20056;-66
2021/06/03 06:16:24;;;;;;;10.18;5.38;;;21.20;69.60;;;;;;5055773;28;20103;-65
2021/06/03 06:18:49;;;;;;;9.57;5.72;;;21.20;69.70;;;;;;5066746;28;20435;-66
2021/06/03 06:21:17;;;;;;;10.40;5.45;;;21.20;69.80;;;;;;5059828;28;20099;-65
2021/06/03 06:23:43;;;;;;;7.90;5.15;;;21.30;69.90;;;;;;5065090;28;20017;-64
2021/06/03 06:26:09;;;;;;;12.57;6.20;;;21.30;69.70;;;;;;5060455;28;20028;-64
2021/06/03 06:28:35;;;;;;;14.20;5.78;;;21.40;70.00;;;;;;5059539;28;20032;-64
2021/06/03 06:31:04;;;;;;;7.80;5.38;;;21.40;69.90;;;;;;5069717;28;20032;-67
2021/06/03 06:33:29;;;;;;;8.88;5.82;;;21.40;69.90;;;;;;5069129;28;20032;-64
2021/06/03 06:35:55;;;;;;;10.73;5.40;;;21.50;70.00;;;;;;5066135;28;20037;-69
2021/06/03 06:38:22;;;;;;;12.38;6.00;;;21.50;69.60;;;;;;5061811;28;20033;-64
2021/06/03 06:40:49;;;;;;;8.77;5.47;;;21.50;69.80;;;;;;5068767;28;20025;-64
2021/06/03 06:43:15;;;;;;;13.90;5.43;;;21.50;69.80;;;;;;5063235;28;20111;-63
2021/06/03 06:45:42;;;;;;;10.57;6.10;;;21.60;69.60;;;;;;5064439;28;20147;-63
2021/06/03 06:48:11;;;;;;;9.35;5.45;;;21.60;70.60;;;;;;5067421;28;20070;-63
2021/06/03 06:50:38;;;;;;;8.23;5.63;;;21.60;70.90;;;;;;5061337;28;20037;-64
2021/06/03 06:53:04;;;;;;;12.23;6.15;;;21.60;71.40;;;;;;5058510;28;20102;-63
2021/06/03 06:55:32;;;;;;;8.88;5.57;;;21.70;71.70;;;;;;5063160;28;20040;-63
2021/06/03 06:57:58;;;;;;;14.93;5.97;;;21.70;72.00;;;;;;5065071;28;20043;-63
2021/06/03 07:00:27;;;;;;;8.88;5.95;;;21.70;72.00;;;;;;5069931;28;20024;-63
2021/06/03 07:02:53;;;;;;;10.27;5.45;;;21.80;72.40;;;;;;5062957;28;20036;-63
2021/06/03 07:05:19;;;;;;;10.10;5.82;;;21.80;72.40;;;;;;5069711;28;20055;-63
2021/06/03 07:07:45;;;;;;;8.95;6.00;;;21.80;72.40;;;;;;5072960;28;20032;-63
2021/06/03 07:10:11;;;;;;;13.65;5.78;;;21.90;71.90;;;;;;5064557;28;20071;-63
2021/06/03 07:12:38;;;;;;;10.20;6.25;;;21.90;72.20;;;;;;5070091;28;20035;-63
2021/06/03 07:15:07;;;;;;;11.75;5.93;;;22.00;72.00;;;;;;5070495;28;20053;-63
2021/06/03 07:17:32;;;;;;;11.65;5.68;;;22.00;72.00;;;;;;5063891;28;20033;-63
2021/06/03 07:19:59;;;;;;;8.43;5.80;;;22.00;72.30;;;;;;5068773;28;20038;-63
2021/06/03 07:22:25;;;;;;;9.68;5.15;;;22.00;72.50;;;;;;5070282;28;20028;-63
2021/06/03 07:24:50;;;;;;;11.00;5.22;;;22.10;72.60;;;;;;5063005;28;20444;-63
2021/06/03 07:27:16;;;;;;;9.80;5.15;;;22.00;72.00;;;;;;5063822;28;20068;-63
2021/06/03 07:29:42;;;;;;;9.50;5.22;;;22.10;71.30;;;;;;5071530;28;20498;-63
2021/06/03 07:32:08;;;;;;;8.55;5.28;;;22.00;70.70;;;;;;5064776;28;20037;-63
2021/06/03 07:34:34;;;;;;;8.80;5.20;;;22.00;71.30;;;;;;5063385;28;20468;-63
2021/06/03 07:37:00;;;;;;;6.55;4.20;;;22.00;70.90;;;;;;5068881;28;20037;-63
2021/06/03 07:39:26;;;;;;;9.13;4.85;;;22.00;70.70;;;;;;5068017;28;20134;-63
2021/06/03 07:41:52;;;;;;;12.00;4.63;;;22.00;70.70;;;;;;5070478;28;20036;-63
2021/06/03 07:44:18;;;;;;;8.27;5.18;;;22.00;70.80;;;;;;5065193;28;20163;-63
2021/06/03 07:46:44;;;;;;;12.85;5.75;;;22.00;71.40;;;;;;5069569;28;20043;-63
2021/06/03 07:49:13;;;;;;;10.57;5.25;;;22.00;71.60;;;;;;5071430;28;20036;-63
2021/06/03 07:51:40;;;;;;;6.47;4.45;;;22.00;71.90;;;;;;5062686;28;20033;-63
2021/06/03 07:54:06;;;;;;;10.55;5.45;;;22.00;72.20;;;;;;5063400;28;20332;-63
2021/06/03 07:56:32;;;;;;;9.85;5.00;;;22.10;71.40;;;;;;5064423;28;20124;-63
2021/06/03 07:58:58;;;;;;;7.68;5.03;;;22.10;71.60;;;;;;5065534;28;20380;-70
2021/06/03 08:01:24;;;;;;;10.95;4.53;;;22.10;71.40;;;;;;5059836;28;20025;-63
2021/06/03 08:03:49;;;;;;;6.30;4.60;;;22.10;71.40;;;;;;5063714;28;20444;-64
2021/06/03 08:06:15;;;;;;;6.65;4.55;;;22.20;71.40;;;;;;5064281;28;20036;-64
2021/06/03 08:08:41;;;;;;;9.02;4.88;;;22.20;71.40;;;;;;5062484;28;20422;-65
2021/06/03 08:11:07;;;;;;;12.88;5.38;;;22.20;71.60;;;;;;5057900;28;20526;-63
2021/06/03 08:13:34;;;;;;;11.63;5.28;;;22.30;71.70;;;;;;5066490;28;20100;-63
2021/06/03 08:16:01;;;;;;;10.68;4.72;;;22.30;71.60;;;;;;5064129;28;20541;-63
2021/06/03 08:18:27;;;;;;;7.45;4.32;;;22.40;71.80;;;;;;5061379;28;20120;-63
2021/06/03 08:20:58;;;;;;;10.57;5.82;;;22.30;71.70;;;;;;5063617;28;20031;-63
2021/06/03 08:23:26;;;;;;;8.05;5.72;;;22.40;72.40;;;;;;5068232;28;20039;-63
2021/06/03 08:25:52;;;;;;;12.35;5.95;;;22.40;72.30;;;;;;5062227;28;20393;-63
2021/06/03 08:28:19;;;;;;;6.85;4.20;;;22.50;72.30;;;;;;5067285;28;20032;-63
2021/06/03 08:30:45;;;;;;;11.70;6.93;;;22.50;72.00;;;;;;5060505;28;20059;-63
2021/06/03 08:33:11;;;;;;;8.88;6.07;;;22.50;72.30;;;;;;5067121;28;20391;-63
2021/06/03 08:35:38;;;;;;;9.25;5.28;;;22.60;72.50;;;;;;5068138;28;20037;-63
2021/06/03 08:38:06;;;;;;;11.40;6.97;;;22.60;72.10;;;;;;5075593;28;20037;-63
2021/06/03 08:40:35;;;;;;;6.53;3.85;;;22.60;72.30;;;;;;5065096;28;20036;-63
2021/06/03 08:43:03;;;;;;;4.38;2.95;;;22.60;72.10;;;;;;5063531;28;20032;-63
2021/06/03 08:45:31;;;;;;;10.40;6.78;;;22.70;72.30;;;;;;5070231;28;20024;-63
2021/06/03 08:47:57;;;;;;;7.47;4.15;;;22.70;72.70;;;;;;5066319;28;20021;-63
2021/06/03 08:50:27;;;;;;;9.55;4.97;;;22.70;72.40;;;;;;5068627;28;20052;-63
2021/06/03 08:52:54;;;;;;;10.15;6.38;;;22.80;72.40;;;;;;5060567;28;20025;-63
2021/06/03 08:58:07;;;;;;;9.23;4.50;;;22.90;72.50;;;;;;5061476;28;20075;-63
2021/06/03 09:00:33;;;;;;;9.60;5.40;;;22.90;72.40;;;;;;5066458;28;20357;-63
2021/06/03 09:03:00;;;;;;;11.70;6.88;;;23.00;72.90;;;;;;5068528;28;20021;-63
2021/06/03 09:05:27;;;;;;;9.13;6.55;;;23.00;72.70;;;;;;5070449;28;20025;-63
2021/06/03 09:07:54;;;;;;;14.75;5.97;;;23.10;72.60;;;;;;5057104;28;20033;-63
2021/06/03 09:10:32;;;;;;;12.57;5.10;;;23.20;72.60;;;;;;5059845;28;20075;-63
2021/06/03 09:13:09;;;;;;;18.00;6.93;;;23.20;72.40;;;;;;5058074;28;20060;-63
2021/06/03 09:15:37;;;;;;;15.05;6.63;;;23.20;72.30;;;;;;5069961;28;20055;-63
2021/06/03 09:18:06;;;;;;;12.18;7.32;;;23.30;72.40;;;;;;5073446;28;20028;-63
2021/06/03 09:20:32;;;;;;;11.20;7.15;;;23.40;72.40;;;;;;5070890;28;20029;-63
2021/06/03 09:22:58;;;;;;;11.65;6.65;;;23.40;72.20;;;;;;5068283;28;20043;-63
2021/06/03 09:25:32;;;;;;;11.52;6.28;;;23.50;73.50;;;;;;5060484;28;20028;-63
2021/06/03 09:28:30;;;;;;;13.10;7.18;;;23.60;72.60;;;;;;5066621;28;20033;-63
2021/06/03 09:31:06;;;;;;;14.70;6.38;;;23.70;72.30;;;;;;5068757;28;20042;-63
2021/06/03 09:33:52;;;;;;;10.07;6.85;;;23.70;72.80;;;;;;5070725;28;20028;-64
2021/06/03 09:36:49;;;;;;;13.35;6.18;;;23.70;72.60;;;;;;5062173;28;20048;-63
2021/06/03 09:39:22;;;;;;;10.02;6.43;;;23.80;72.50;;;;;;5062675;28;20033;-64
2021/06/03 09:42:14;;;;;;;10.45;6.80;;;23.90;72.50;;;;;;5074110;28;20043;-65
2021/06/03 09:44:49;;;;;;;14.15;6.57;;;23.90;72.20;;;;;;5064411;28;20035;-64
2021/06/03 09:47:17;;;;;;;13.65;6.15;;;24.00;72.20;;;;;;5063137;28;20032;-65
2021/06/03 09:49:46;;;;;;;13.23;7.30;;;24.00;71.80;;;;;;5063352;28;20388;-67
2021/06/03 09:52:15;;;;;;;13.93;7.07;;;24.20;72.10;;;;;;5065317;28;20072;-64
2021/06/03 09:54:46;;;;;;;11.95;6.35;;;24.20;72.20;;;;;;5065336;28;20058;-64
2021/06/03 09:57:13;;;;;;;13.25;6.68;;;24.20;72.00;;;;;;5062926;28;20435;-64
2021/06/03 09:59:45;;;;;;;18.10;6.22;;;24.30;71.80;;;;;;5060592;28;20025;-64
2021/06/03 10:02:15;;;;;;;13.60;5.38;;;24.30;71.60;;;;;;5055529;28;20439;-64
2021/06/03 10:04:48;;;;;;;9.52;5.47;;;24.40;71.60;;;;;;5059312;28;20468;-64
2021/06/03 10:07:26;;;;;;;16.00;6.43;;;24.40;71.50;;;;;;5058370;28;20464;-64
2021/06/03 10:09:59;;;;;;;11.07;5.90;;;24.40;71.50;;;;;;5057615;28;20021;-64
2021/06/03 10:12:27;;;;;;;;;;;24.50;71.40;;;;;;5059609;28;20025;-64
2021/06/03 10:15:08;;;;;;;15.40;6.80;;;24.60;71.50;;;;;;5054037;28;19924;-64
2021/06/03 10:17:56;;;;;;;11.63;7.05;;;24.70;71.50;;;;;;5060350;28;20028;-64
2021/06/03 10:20:47;;;;;;;12.60;6.82;;;24.80;71.80;;;;;;5071697;28;20024;-64
2021/06/03 10:23:24;;;;;;;17.38;5.97;;;24.90;71.30;;;;;;5058812;28;20044;-64
2021/06/03 10:26:06;;;;;;;8.82;5.38;;;25.00;70.90;;;;;;5058250;28;20178;-64
2021/06/03 10:28:33;;;;;;;15.30;6.85;;;25.00;71.10;;;;;;5056630;28;20064;-64
2021/06/03 10:31:07;;;;;;;13.82;6.60;;;25.00;70.80;;;;;;5064800;28;20537;-64
2021/06/03 10:33:33;;;;;;;9.73;6.55;;;25.10;70.50;;;;;;5055929;28;20037;-64
2021/06/03 10:36:10;;;;;;;13.25;7.18;;;25.10;70.80;;;;;;5054136;28;20029;-64
2021/06/03 10:38:37;;;;;;;12.27;7.63;;;25.30;70.90;;;;;;5056741;28;20028;-64
2021/06/03 10:41:05;;;;;;;15.65;7.45;;;25.40;70.80;;;;;;5063098;28;20092;-64
2021/06/03 10:43:36;;;;;;;13.88;6.80;;;25.40;70.90;;;;;;5057046;28;20021;-64
2021/06/03 10:46:03;;;;;;;15.07;8.02;;;25.60;70.60;;;;;;5058059;28;20053;-64
2021/06/03 10:48:28;;;;;;;10.60;7.25;;;25.60;70.10;;;;;;5059994;28;20040;-64
2021/06/03 10:50:55;;;;;;;14.55;6.97;;;25.70;70.00;;;;;;5056939;28;20033;-65
2021/06/03 10:53:27;;;;;;;16.23;7.45;;;25.80;70.10;;;;;;5065185;28;20078;-64
2021/06/03 10:56:07;;;;;;;13.80;8.20;;;25.80;69.50;;;;;;5057425;28;20503;-64
2021/06/03 10:58:36;;;;;;;15.30;6.43;;;25.90;69.90;;;;;;5070372;28;20032;-64
2021/06/03 11:01:08;;;;;;;15.65;7.25;;;26.00;69.80;;;;;;5064734;28;20028;-65
2021/06/03 11:03:41;;;;;;;14.38;6.78;;;26.10;70.10;;;;;;5068949;28;20373;-64
2021/06/03 11:06:13;;;;;;;10.95;6.18;;;26.20;69.80;;;;;;5053757;28;20029;-64
2021/06/03 11:08:44;;;;;;;15.15;9.32;;;26.20;69.00;;;;;;5063920;28;20392;-65
2021/06/03 11:11:10;;;;;;;16.70;8.48;;;26.30;68.50;;;;;;5059285;28;20056;-64
2021/06/03 11:14:04;;;;;;;14.65;8.02;;;26.30;68.70;;;;;;5070914;28;20055;-64
2021/06/03 11:16:36;;;;;;;12.45;6.90;;;26.30;68.50;;;;;;5064276;28;20510;-64
2021/06/03 11:19:01;;;;;;;9.68;6.60;;;26.30;68.80;;;;;;5058032;28;20043;-64
2021/06/03 11:23:59;;;;;;;10.32;7.28;;;26.30;68.90;;;;;;5056348;28;20083;-64
2021/06/03 11:26:40;;;;;;;13.25;8.70;;;26.40;68.20;;;;;;5063563;28;20031;-68
2021/06/03 11:29:17;;;;;;;16.45;8.13;;;26.40;67.60;;;;;;5066312;28;20507;-66
2021/06/03 11:31:45;;;;;;;9.85;6.50;;;26.50;66.90;;;;;;5070669;28;20027;-67
2021/06/03 11:34:12;;;;;;;12.35;7.10;;;26.60;67.10;;;;;;5065780;28;20032;-68
2021/06/03 11:36:39;;;;;;;14.05;6.43;;;26.60;67.20;;;;;;5061197;28;20037;-66
2021/06/03 11:39:26;;;;;;;9.57;6.30;;;26.60;67.70;;;;;;5057952;28;20094;-64
2021/06/03 11:42:15;;;;;;;14.55;6.57;;;26.70;67.60;;;;;;5051111;28;20025;-64
2021/06/03 11:45:19;;;;;;;9.75;5.65;;;26.70;67.50;;;;;;5059902;28;20027;-64
2021/06/03 11:47:44;;;;;;;12.80;6.10;;;26.70;68.30;;;;;;5065424;28;20043;-64
2021/06/03 11:50:16;;;;;;;10.80;5.57;;;26.70;68.70;;;;;;5070043;28;20040;-64
2021/06/03 11:53:00;;;;;;;7.78;5.22;;;26.80;68.40;;;;;;5061399;28;20025;-64
2021/06/03 11:55:33;;;;;;;13.13;6.63;;;26.80;68.60;;;;;;5064529;28;20032;-64
2021/06/03 11:58:25;;;;;;;9.82;6.07;;;26.80;68.10;;;;;;5057515;28;20416;-64
2021/06/03 12:00:59;;;;;;;13.93;6.18;;;26.80;68.80;;;;;;5062773;28;20024;-64
2021/06/03 12:03:27;;;;;;;8.38;5.55;;;26.80;68.60;;;;;;5064648;28;20103;-67
2021/06/03 12:05:57;;;;;;;9.15;4.82;;;26.90;68.10;;;;;;5065791;28;20449;-63
2021/06/03 12:08:42;;;;;;;6.03;3.60;;;26.90;68.60;;;;;;5052657;28;20593;-68
2021/06/03 12:11:30;;;;;;;9.65;4.10;;;26.90;68.70;;;;;;5056636;28;20056;-67
2021/06/03 12:14:09;;;;;;;16.83;4.47;;;26.90;68.60;;;;;;5053497;28;20109;-64
2021/06/03 12:16:39;;;;;;;8.88;4.53;;;26.90;68.20;;;;;;5055481;28;20107;-64
2021/06/03 12:19:14;;;;;;;7.55;4.65;;;27.00;68.90;;;;;;5055101;28;20037;-63
2021/06/03 12:21:42;;;;;;;9.48;4.88;;;27.00;69.00;;;;;;5054432;28;20032;-64
2021/06/03 12:24:08;;;;;;;13.00;5.90;;;26.90;68.60;;;;;;5053636;28;20351;-64
2021/06/03 12:26:39;;;;;;;17.52;10.40;;;27.00;68.00;;;;;;5054294;28;20033;-73
2021/06/03 12:29:06;;;;;;;21.17;12.55;;;27.00;68.00;;;;;;5056370;28;20033;-65
2021/06/03 12:31:33;;;;;;;22.83;14.82;;;27.10;68.50;;;;;;5055384;28;20025;-64
2021/06/03 12:33:59;;;;;;;20.77;13.32;;;27.10;68.50;;;;;;5057773;28;20024;-64
2021/06/03 12:36:29;;;;;;;22.23;13.88;;;27.20;68.70;;;;;;5055271;28;20140;-64
2021/06/03 12:38:56;;;;;;;20.98;14.13;;;27.20;68.70;;;;;;5065689;28;20032;-64
2021/06/03 12:41:25;;;;;;;29.33;16.67;;;27.20;69.30;;;;;;5063073;28;20112;-63
2021/06/03 12:44:02;;;;;;;24.52;15.77;;;27.30;69.60;;;;;;5063222;28;20032;-63
2021/06/03 12:46:32;;;;;;;29.05;17.98;;;27.20;70.50;;;;;;5060554;28;20082;-63
2021/06/03 12:49:07;;;;;;;26.92;17.00;;;27.20;70.20;;;;;;5057456;28;20028;-63
2021/06/03 12:51:34;;;;;;;27.33;18.15;;;27.20;70.30;;;;;;5060786;28;20064;-63
2021/06/03 12:54:00;;;;;;;26.55;18.17;;;27.20;70.50;;;;;;5059468;28;20032;-63
2021/06/03 12:56:27;;;;;;;31.00;18.85;;;27.20;70.50;;;;;;5058732;28;20041;-63